Terminal Aerodrome Forecast
Issued by NWS

Home | Current Version | Previous Version | Text Only | Print | Product List | Glossary On
Versions: 1 2 3 4 5 6 7 8 9 10 11 12 13 14
882
FTUS43 KIND 211722
TAFLAF
TAF
KLAF 211722Z 2118/2218 25008KT P6SM VCTS SCT030 BKN040CB
     FM220000 20005KT P6SM SCT200
     FM220900 22005KT P6SM -SHRA VCTS OVC060CB
     FM221600 26008KT 6SM -SHRA VCTS OVC030CB=

USA.gov is the U.S. government's official web portal to all federal, state and local government web resources and services.